Gambill, Indiana
Current Conditions -  °F | °C
As of 10:15 PM on Monday 26 Jan 2015 (Local Time) from KRSV Reporting Station
Overcast Overcast  
Wind Chill: 23°   Ceiling: 2000
Heat Index: 28°   Visibility: 10mi
Dew Point: 27°   Wind: 5mph
Humidity: 95%   Direction: 160°SSE
Pressure: 29.95"   Gusts: NA
Location:  39.0631°N, 87.2571°W
Report Text: KRSV 270315Z AUTO 16004KT 10SM BKN020 OVC025 M02/M03 A2995 RMK AO2 T10211028
Loading
Personal Weather Stations






























Interactive Weather Map New forecast layout! Learn more

10-Day Weather Forecast

Advertisements
Track Severe Weather on mobile